Ontonagon, MI (49953)

10:47 PM EDT on July 06, 2015 (GMT -0400)
MesoWest | | Change Station
CLOSE
Current Station
Personal Weather Station
Location: Rockland, MI
Elevation: 1026 ft
Nearby Weather Stations

Elev 1026 ft 46.72 °N, 89.15 °W | Updated 32 minutes ago

Overcast
Overcast
55 °F
Feels Like 55 °F
N
4
Wind Variable Wind from NW
Gusts 8.0 mph

Today
High -- | Low -- °F
--% Chance of Precip.
Yesterday
High -- | Low -- °F
Precip. -- in
6:10 AM 9:53 PM
Waning Gibbous, 69% visible
Pressure 29.94 in
Visibility 1.0 miles
Clouds Overcast 200 ft
Dew Point 55 °F
Humidity 99%
Rainfall in
Snow Depth Not available.
UV 0 out of 12
Pollen .50 out of 12
Air Quality Not available.
Flu Activity Not available.
METAR KIWD 070235Z AUTO 26004KT 1SM OVC002 13/13 A2994 RMK AO1

More Conditions Fewer Conditions

Pressure 29.94 in
Visibility 1.0 miles
Clouds Overcast 200 ft
Dew Point 55 °F
Humidity 99%
Rainfall in
Snow Depth Not available.
UV 0 out of 12
Pollen .50 out of 12
Air Quality Not available.
Flu Activity Not available.
METAR KIWD 070235Z AUTO 26004KT 1SM OVC002 13/13 A2994 RMK AO1

More Conditions Fewer Conditions

10-Day Weather Forecast

×

Almanac

Astronomy

Jul. 06, 2015 Rise Set
Actual Time
Civil Twilight
Nautical Twilight
Astronomical Twilight
Moon
Length of Visible Light
Length of Day
Tomorrow will be .
, % of the Moon is Illuminated

Today's Extremes

State Highs State Lows

Community

WunderPhotos

Upload Photos

1,835,701 photos uploaded!

WunderBlogs® & News

Nearby

Air Quality

  Air Quality AQ Index Pollutant
Not available.

Snow Depth

Station Depth Elevation

Earthquake Activity

City Distance Mag. Time & Date
Minimum magnitude displayed is 2.5.

Coastal Water Temperatures

Place Temperature

Stations

Nearby Weather Stations

Station Location Temp. Windchill Dew Point Humidity Wind Precip. Elev Updated Type